Time;durP1;ratioP1;P1;durP2;ratioP2;P2;SDS_P1;SDS_P2;PMS_P1;PMS_P2;Temp;Humidity;BMP_temperature;BMP_pressure;BME280_temperature;BME280_humidity;BME280_pressure;Samples;Min_cycle;Max_cycle;Signal;HPM_P1;HPM_P2
2021/05/23 00:02:02;;;;;;;15.63;8.13;;;;;;;;;;5016553;28;20037;-80
2021/05/23 00:04:28;;;;;;;10.43;8.25;;;;;;;;;;5016501;28;20389;-81
2021/05/23 00:06:54;;;;;;;11.13;7.07;;;;;;;;;;5016612;28;20030;-81
2021/05/23 00:09:20;;;;;;;9.02;7.97;;;;;;;;;;5016546;28;20034;-81
2021/05/23 00:11:46;;;;;;;10.25;7.97;;;;;;;;;;5016406;28;20041;-81
2021/05/23 00:14:12;;;;;;;9.98;8.43;;;;;;;;;;5016136;28;20026;-81
2021/05/23 00:16:39;;;;;;;8.73;7.53;;;;;;;;;;5016423;28;20022;-81
2021/05/23 00:19:05;;;;;;;8.38;7.55;;;;;;;;;;5016402;28;20475;-81
2021/05/23 00:21:31;;;;;;;13.00;8.30;;;;;;;;;;5016023;28;20510;-81
2021/05/23 00:23:57;;;;;;;11.73;7.43;;;;;;;;;;5016254;28;20103;-81
2021/05/23 00:26:23;;;;;;;8.38;7.57;;;;;;;;;;5015959;28;20026;-81
2021/05/23 00:28:49;;;;;;;8.90;7.10;;;;;;;;;;5016174;28;20025;-81
2021/05/23 00:31:16;;;;;;;7.93;6.50;;;;;;;;;;5014908;28;20034;-81
2021/05/23 00:33:42;;;;;;;8.18;7.32;;;;;;;;;;5015978;28;20025;-81
2021/05/23 00:36:08;;;;;;;8.32;6.90;;;;;;;;;;5015693;28;20041;-81
2021/05/23 00:38:34;;;;;;;6.97;6.30;;;;;;;;;;5015914;28;20072;-81
2021/05/23 00:41:00;;;;;;;10.73;6.65;;;;;;;;;;5015670;28;20468;-81
2021/05/23 00:43:26;;;;;;;9.85;6.85;;;;;;;;;;5015867;28;20160;-81
2021/05/23 00:45:52;;;;;;;13.48;7.72;;;;;;;;;;5015655;28;20026;-81
2021/05/23 00:48:19;;;;;;;8.40;6.90;;;;;;;;;;5015528;28;20037;-81
2021/05/23 00:50:45;;;;;;;6.97;6.20;;;;;;;;;;5015726;28;20030;-81
2021/05/23 00:53:11;;;;;;;7.90;6.55;;;;;;;;;;5015271;28;20038;-81
2021/05/23 00:55:37;;;;;;;12.13;7.40;;;;;;;;;;5015712;28;20468;-81
2021/05/23 00:58:04;;;;;;;7.90;6.47;;;;;;;;;;5015621;28;20029;-82
2021/05/23 01:00:50;;;;;;;6.85;6.15;;;;;;;;;;5015570;28;20028;-82
2021/05/23 01:03:35;;;;;;;9.70;6.55;;;;;;;;;;5000736;28;20404;-81
2021/05/23 01:06:04;;;;;;;6.85;6.15;;;;;;;;;;5000975;28;20038;-81
2021/05/23 01:08:30;;;;;;;8.43;7.18;;;;;;;;;;5015962;28;20034;-81
2021/05/23 01:11:16;;;;;;;10.40;7.00;;;;;;;;;;5015457;28;20116;-81
2021/05/23 01:14:02;;;;;;;9.23;6.78;;;;;;;;;;5000956;28;20376;-81
2021/05/23 01:16:37;;;;;;;9.23;6.93;;;;;;;;;;5000967;28;20054;-82
2021/05/23 01:19:20;;;;;;;7.47;6.18;;;;;;;;;;5015670;28;20125;-81
2021/05/23 01:21:49;;;;;;;7.90;6.60;;;;;;;;;;5015366;28;20030;-81
2021/05/23 01:24:18;;;;;;;7.50;6.80;;;;;;;;;;5014921;28;20029;-79
2021/05/23 01:26:49;;;;;;;8.68;6.25;;;;;;;;;;5015137;28;20523;-81
2021/05/23 01:29:15;;;;;;;7.15;6.32;;;;;;;;;;5015260;28;20033;-82
2021/05/23 01:31:41;;;;;;;8.43;6.55;;;;;;;;;;5014806;28;20037;-81
2021/05/23 01:34:07;;;;;;;7.40;6.20;;;;;;;;;;5014463;28;20497;-81
2021/05/23 01:36:35;;;;;;;9.40;6.68;;;;;;;;;;5014991;28;20057;-82
2021/05/23 01:39:01;;;;;;;9.25;6.45;;;;;;;;;;5014951;28;20034;-81
2021/05/23 01:41:28;;;;;;;6.90;6.15;;;;;;;;;;5015321;28;20116;-81
2021/05/23 01:43:54;;;;;;;6.20;5.57;;;;;;;;;;5014777;28;20030;-81
2021/05/23 01:46:20;;;;;;;7.10;6.30;;;;;;;;;;5014572;28;20026;-81
2021/05/23 01:48:46;;;;;;;7.38;5.60;;;;;;;;;;5014881;28;20464;-81
2021/05/23 01:51:12;;;;;;;7.30;6.05;;;;;;;;;;5014538;28;20026;-82
2021/05/23 01:53:38;;;;;;;7.20;5.93;;;;;;;;;;5014669;28;20026;-81
2021/05/23 01:56:04;;;;;;;7.15;6.45;;;;;;;;;;5014488;28;20115;-81
2021/05/23 01:58:31;;;;;;;6.85;6.07;;;;;;;;;;5014791;28;20026;-81
2021/05/23 02:00:57;;;;;;;6.55;5.78;;;;;;;;;;5014593;28;20522;-82
2021/05/23 02:03:23;;;;;;;7.82;6.10;;;;;;;;;;5014692;28;20068;-81
2021/05/23 02:05:51;;;;;;;7.70;5.75;;;;;;;;;;5014589;28;20458;-82
2021/05/23 02:08:18;;;;;;;5.95;5.20;;;;;;;;;;5014348;28;20026;-81
2021/05/23 02:10:44;;;;;;;7.10;5.80;;;;;;;;;;5014596;28;20575;-82
2021/05/23 02:13:10;;;;;;;7.38;5.88;;;;;;;;;;5014787;28;20095;-82
2021/05/23 02:15:39;;;;;;;6.28;5.40;;;;;;;;;;5014254;28;20022;-81
2021/05/23 02:18:05;;;;;;;6.82;5.72;;;;;;;;;;5014346;28;20037;-81
2021/05/23 02:20:31;;;;;;;7.13;5.65;;;;;;;;;;5014179;28;20030;-81
2021/05/23 02:22:58;;;;;;;7.88;5.43;;;;;;;;;;5014005;28;20026;-81
2021/05/23 02:25:25;;;;;;;9.07;5.68;;;;;;;;;;5014680;28;20025;-82
2021/05/23 02:27:51;;;;;;;5.85;5.22;;;;;;;;;;5014478;28;20026;-82
2021/05/23 02:30:18;;;;;;;6.30;5.47;;;;;;;;;;5014013;28;20115;-81
2021/05/23 02:32:44;;;;;;;6.95;5.30;;;;;;;;;;5014266;28;20033;-81
2021/05/23 02:35:11;;;;;;;6.18;5.57;;;;;;;;;;5014244;28;20030;-81
2021/05/23 02:37:37;;;;;;;5.95;5.28;;;;;;;;;;5014049;28;20041;-81
2021/05/23 02:40:10;;;;;;;6.80;4.88;;;;;;;;;;5013934;28;20025;-80
2021/05/23 02:42:36;;;;;;;6.53;5.55;;;;;;;;;;5014336;28;20030;-81
2021/05/23 02:45:04;;;;;;;5.63;4.85;;;;;;;;;;5014309;28;20371;-81
2021/05/23 02:47:30;;;;;;;6.05;4.95;;;;;;;;;;5014493;28;20026;-81
2021/05/23 02:49:56;;;;;;;6.00;4.53;;;;;;;;;;5014042;28;20025;-81
2021/05/23 02:52:22;;;;;;;5.82;4.88;;;;;;;;;;5013406;28;20441;-81
2021/05/23 02:54:49;;;;;;;5.68;5.00;;;;;;;;;;5014728;28;20026;-81
2021/05/23 02:57:15;;;;;;;7.10;6.22;;;;;;;;;;5017958;28;20022;-81
2021/05/23 02:59:41;;;;;;;5.45;4.63;;;;;;;;;;5017842;28;20029;-81
2021/05/23 03:02:07;;;;;;;5.88;5.28;;;;;;;;;;5017678;28;20030;-81
2021/05/23 03:04:34;;;;;;;7.97;5.32;;;;;;;;;;5017407;28;20534;-81
2021/05/23 03:07:00;;;;;;;5.07;4.57;;;;;;;;;;5017021;28;20025;-81
2021/05/23 03:09:26;;;;;;;6.97;4.60;;;;;;;;;;5017406;28;20030;-81
2021/05/23 03:11:52;;;;;;;5.78;5.18;;;;;;;;;;5017477;28;20053;-81
2021/05/23 03:14:18;;;;;;;5.68;5.00;;;;;;;;;;5017277;28;20457;-81
2021/05/23 03:16:44;;;;;;;5.07;4.57;;;;;;;;;;5017773;28;20022;-81
2021/05/23 03:19:10;;;;;;;6.57;5.10;;;;;;;;;;5017242;28;20038;-81
2021/05/23 03:21:36;;;;;;;4.88;4.25;;;;;;;;;;5016812;28;20030;-79
2021/05/23 03:24:03;;;;;;;4.95;4.45;;;;;;;;;;5017145;28;20387;-79
2021/05/23 03:26:29;;;;;;;7.32;4.90;;;;;;;;;;5017352;28;20143;-78
2021/05/23 03:28:55;;;;;;;5.38;4.72;;;;;;;;;;5017576;28;20040;-77
2021/05/23 03:31:21;;;;;;;5.55;4.57;;;;;;;;;;5017030;28;20542;-77
2021/05/23 03:33:47;;;;;;;7.75;5.30;;;;;;;;;;5016973;28;20046;-79
2021/05/23 03:36:13;;;;;;;5.85;5.25;;;;;;;;;;5016534;28;20072;-78
2021/05/23 03:38:39;;;;;;;5.30;4.72;;;;;;;;;;5017326;28;20053;-77
2021/05/23 03:41:05;;;;;;;4.82;4.22;;;;;;;;;;5016886;28;20472;-77
2021/05/23 03:43:31;;;;;;;9.63;5.28;;;;;;;;;;5017339;28;20061;-78
2021/05/23 03:45:57;;;;;;;5.53;4.63;;;;;;;;;;5016684;28;20022;-80
2021/05/23 03:48:23;;;;;;;5.07;4.38;;;;;;;;;;5016616;28;20037;-81
2021/05/23 03:50:50;;;;;;;10.07;5.00;;;;;;;;;;5016696;28;20022;-81
2021/05/23 03:53:16;;;;;;;5.78;4.35;;;;;;;;;;5016984;28;20132;-81
2021/05/23 03:55:42;;;;;;;5.50;4.95;;;;;;;;;;5016853;28;20460;-81
2021/05/23 03:58:08;;;;;;;5.93;5.20;;;;;;;;;;5016926;28;20183;-79
2021/05/23 04:00:35;;;;;;;6.13;4.40;;;;;;;;;;5016691;28;20022;-78
2021/05/23 04:03:01;;;;;;;5.18;4.68;;;;;;;;;;5016704;28;20033;-78
2021/05/23 04:05:28;;;;;;;7.30;4.45;;;;;;;;;;5016743;28;20054;-79
2021/05/23 04:07:54;;;;;;;6.30;5.13;;;;;;;;;;5016869;28;20022;-78
2021/05/23 04:10:23;;;;;;;5.53;4.80;;;;;;;;;;5016033;28;20050;-78
2021/05/23 04:12:51;;;;;;;5.88;5.10;;;;;;;;;;5017014;28;20096;-79
2021/05/23 04:15:18;;;;;;;5.45;4.22;;;;;;;;;;5016416;28;20105;-78
2021/05/23 04:17:44;;;;;;;4.82;4.32;;;;;;;;;;5016296;28;20499;-80
2021/05/23 04:20:11;;;;;;;5.82;5.15;;;;;;;;;;5015957;28;20037;-78
2021/05/23 04:22:37;;;;;;;6.05;4.90;;;;;;;;;;5016796;28;20026;-79
2021/05/23 04:25:05;;;;;;;5.82;4.97;;;;;;;;;;5016283;28;20113;-79
2021/05/23 04:27:31;;;;;;;5.78;4.90;;;;;;;;;;5016413;28;20022;-80
2021/05/23 04:29:57;;;;;;;10.80;4.95;;;;;;;;;;5016377;28;20030;-78
2021/05/23 04:32:23;;;;;;;5.00;4.50;;;;;;;;;;5015546;28;20072;-78
2021/05/23 04:34:49;;;;;;;6.45;5.03;;;;;;;;;;5015549;28;20018;-79
2021/05/23 04:37:16;;;;;;;6.72;4.68;;;;;;;;;;5015965;28;20161;-81
2021/05/23 04:39:42;;;;;;;8.88;4.50;;;;;;;;;;5016313;28;20392;-81
2021/05/23 04:42:08;;;;;;;5.22;4.72;;;;;;;;;;5015696;28;20041;-79
2021/05/23 04:44:34;;;;;;;5.00;4.50;;;;;;;;;;5016090;28;20025;-79
2021/05/23 04:47:00;;;;;;;6.50;4.68;;;;;;;;;;5015547;28;20074;-79
2021/05/23 04:49:26;;;;;;;4.72;4.10;;;;;;;;;;5015244;28;20428;-79
2021/05/23 04:51:52;;;;;;;4.93;4.50;;;;;;;;;;5015707;28;20046;-78
2021/05/23 04:54:18;;;;;;;6.45;4.93;;;;;;;;;;5015605;28;20032;-78
2021/05/23 04:56:44;;;;;;;4.57;4.00;;;;;;;;;;5015816;28;20045;-79
2021/05/23 04:59:10;;;;;;;6.53;5.38;;;;;;;;;;5015509;28;20468;-78
2021/05/23 05:01:37;;;;;;;10.68;5.40;;;;;;;;;;5015284;28;20361;-78
2021/05/23 05:04:03;;;;;;;5.97;4.72;;;;;;;;;;5014954;28;20060;-77
2021/05/23 05:06:29;;;;;;;4.85;4.32;;;;;;;;;;5015575;28;20022;-78
2021/05/23 05:08:55;;;;;;;5.20;4.55;;;;;;;;;;5015349;28;20480;-77
2021/05/23 05:11:21;;;;;;;4.75;4.25;;;;;;;;;;5015569;28;20560;-81
2021/05/23 05:13:47;;;;;;;6.90;4.40;;;;;;;;;;5015283;28;20026;-81
2021/05/23 05:16:13;;;;;;;5.25;4.57;;;;;;;;;;5015087;28;20025;-81
2021/05/23 05:18:39;;;;;;;4.55;4.15;;;;;;;;;;5014529;28;20030;-80
2021/05/23 05:21:06;;;;;;;8.38;4.20;;;;;;;;;;5011998;28;20025;-76
2021/05/23 05:23:32;;;;;;;4.22;3.83;;;;;;;;;;5012735;28;20460;-81
2021/05/23 05:26:00;;;;;;;4.68;4.00;;;;;;;;;;5014328;28;20018;-76
2021/05/23 05:28:27;;;;;;;11.77;4.30;;;;;;;;;;5014868;28;20494;-78
2021/05/23 05:30:53;;;;;;;12.38;5.22;;;;;;;;;;5014699;28;20040;-82
2021/05/23 05:33:19;;;;;;;5.82;3.70;;;;;;;;;;5012365;28;20383;-79
2021/05/23 05:35:45;;;;;;;7.30;4.03;;;;;;;;;;5015252;28;20030;-80
2021/05/23 05:38:13;;;;;;;6.18;4.07;;;;;;;;;;5014780;28;20071;-80
2021/05/23 05:40:39;;;;;;;4.70;4.07;;;;;;;;;;5015107;28;20029;-79
2021/05/23 05:43:05;;;;;;;8.93;4.82;;;;;;;;;;5013513;28;20034;-77
2021/05/23 05:45:31;;;;;;;6.28;4.20;;;;;;;;;;5015237;28;20037;-79
2021/05/23 05:47:57;;;;;;;17.05;5.03;;;;;;;;;;5014942;28;20029;-79
2021/05/23 05:50:23;;;;;;;4.72;4.03;;;;;;;;;;5015043;28;20476;-81
2021/05/23 05:52:49;;;;;;;9.02;4.22;;;;;;;;;;5014650;28;20042;-79
2021/05/23 05:55:15;;;;;;;7.38;4.20;;;;;;;;;;5013138;28;20037;-83
2021/05/23 05:57:41;;;;;;;7.53;3.40;;;;;;;;;;5012727;28;20529;-81
2021/05/23 06:00:08;;;;;;;6.68;4.30;;;;;;;;;;5013139;28;20419;-80
2021/05/23 06:02:34;;;;;;;11.63;4.68;;;;;;;;;;5013067;28;20064;-80
2021/05/23 06:05:00;;;;;;;5.15;2.78;;;;;;;;;;5014294;28;20143;-84
2021/05/23 06:07:26;;;;;;;5.43;3.92;;;;;;;;;;5013819;28;20030;-79
2021/05/23 06:09:52;;;;;;;12.05;4.63;;;;;;;;;;5013219;28;20067;-80
2021/05/23 06:12:18;;;;;;;8.52;4.07;;;;;;;;;;5015410;28;20038;-77
2021/05/23 06:14:44;;;;;;;7.03;4.22;;;;;;;;;;5014107;28;20018;-78
2021/05/23 06:17:11;;;;;;;8.15;5.20;;;;;;;;;;5013644;28;20033;-82
2021/05/23 06:19:37;;;;;;;16.95;8.38;;;;;;;;;;5013674;28;20080;-80
2021/05/23 06:22:03;;;;;;;14.63;7.20;;;;;;;;;;5010660;28;20040;-82
2021/05/23 06:24:29;;;;;;;10.48;6.57;;;;;;;;;;5011185;28;20022;-82
2021/05/23 06:26:55;;;;;;;9.98;6.88;;;;;;;;;;5011997;28;20112;-81
2021/05/23 06:29:21;;;;;;;12.45;6.50;;;;;;;;;;5012367;28;20109;-81
2021/05/23 06:31:47;;;;;;;16.45;6.47;;;;;;;;;;5014494;28;20080;-82
2021/05/23 06:34:13;;;;;;;12.50;7.35;;;;;;;;;;5016628;28;20026;-79
2021/05/23 06:36:39;;;;;;;20.13;7.15;;;;;;;;;;5017690;28;20026;-81
2021/05/23 06:39:06;;;;;;;11.23;6.72;;;;;;;;;;5017717;28;20029;-82
2021/05/23 06:41:32;;;;;;;15.52;6.43;;;;;;;;;;5016427;28;20064;-81
2021/05/23 06:43:58;;;;;;;11.23;6.00;;;;;;;;;;5016365;28;20026;-77
2021/05/23 06:46:24;;;;;;;14.30;5.90;;;;;;;;;;5016319;28;20018;-77
2021/05/23 06:48:50;;;;;;;10.63;6.07;;;;;;;;;;5017195;28;20376;-78
2021/05/23 06:51:16;;;;;;;8.63;5.88;;;;;;;;;;5017137;28;20033;-77
2021/05/23 06:53:42;;;;;;;13.25;6.07;;;;;;;;;;5016069;28;20026;-77
2021/05/23 06:56:08;;;;;;;10.75;5.35;;;;;;;;;;5016601;28;20435;-77
2021/05/23 06:58:34;;;;;;;13.00;5.53;;;;;;;;;;5017254;28;20029;-77
2021/05/23 07:01:02;;;;;;;10.77;5.82;;;;;;;;;;5016817;28;20029;-78
2021/05/23 07:03:28;;;;;;;15.82;5.68;;;;;;;;;;5015972;28;20480;-77
2021/05/23 07:05:54;;;;;;;16.10;5.30;;;;;;;;;;5016251;28;20036;-78
2021/05/23 07:08:20;;;;;;;8.65;5.32;;;;;;;;;;5016328;28;20030;-77
2021/05/23 07:10:46;;;;;;;10.75;5.82;;;;;;;;;;5017073;28;20030;-77
2021/05/23 07:13:12;;;;;;;8.38;5.28;;;;;;;;;;5016334;28;20388;-77
2021/05/23 07:15:39;;;;;;;19.67;6.03;;;;;;;;;;5015711;28;20022;-77
2021/05/23 07:18:05;;;;;;;7.82;4.63;;;;;;;;;;5016532;28;20034;-78
2021/05/23 07:20:31;;;;;;;6.82;4.68;;;;;;;;;;5016285;28;20022;-77
2021/05/23 07:22:57;;;;;;;9.93;4.57;;;;;;;;;;5016164;28;20025;-78
2021/05/23 07:25:23;;;;;;;6.80;4.90;;;;;;;;;;5016257;28;20034;-77
2021/05/23 07:27:49;;;;;;;17.60;5.65;;;;;;;;;;5015927;28;20472;-77
2021/05/23 07:30:16;;;;;;;6.38;4.88;;;;;;;;;;5015650;28;20057;-77
2021/05/23 07:32:42;;;;;;;12.10;4.88;;;;;;;;;;5014894;28;20387;-80
2021/05/23 07:35:08;;;;;;;9.90;5.90;;;;;;;;;;5016086;28;20108;-81
2021/05/23 07:37:34;;;;;;;7.32;4.22;;;;;;;;;;5016940;28;20026;-82
2021/05/23 07:40:00;;;;;;;8.70;4.22;;;;;;;;;;5016527;28;20109;-81
2021/05/23 07:42:26;;;;;;;7.38;4.70;;;;;;;;;;5016198;28;20099;-80
2021/05/23 07:44:53;;;;;;;5.70;3.75;;;;;;;;;;5013669;28;20037;-84
2021/05/23 07:47:19;;;;;;;5.10;4.05;;;;;;;;;;5012610;28;20026;-79
2021/05/23 07:49:45;;;;;;;12.80;4.45;;;;;;;;;;5015692;28;20046;-80
2021/05/23 07:52:11;;;;;;;7.80;3.75;;;;;;;;;;5014182;28;20033;-78
2021/05/23 07:54:38;;;;;;;8.15;4.13;;;;;;;;;;5014475;28;20041;-81
2021/05/23 07:57:04;;;;;;;7.55;3.55;;;;;;;;;;5011428;28;20105;-79
2021/05/23 07:59:30;;;;;;;11.38;4.97;;;;;;;;;;5013684;28;20037;-78
2021/05/23 08:01:56;;;;;;;4.38;3.70;;;;;;;;;;5009138;28;20122;-78
2021/05/23 08:04:23;;;;;;;7.25;3.20;;;;;;;;;;5014060;28;20038;-77
2021/05/23 08:06:49;;;;;;;4.90;3.25;;;;;;;;;;5012225;28;20795;-79
2021/05/23 08:09:15;;;;;;;3.78;2.70;;;;;;;;;;5014975;28;20018;-78
2021/05/23 08:11:41;;;;;;;5.05;3.13;;;;;;;;;;5015015;28;20116;-77
2021/05/23 08:14:08;;;;;;;6.60;3.45;;;;;;;;;;5012985;28;20018;-78
2021/05/23 08:16:34;;;;;;;7.10;3.50;;;;;;;;;;5013846;28;20118;-81
2021/05/23 08:19:00;;;;;;;5.22;3.15;;;;;;;;;;5015773;28;20112;-82
2021/05/23 08:21:27;;;;;;;4.40;2.95;;;;;;;;;;5015238;28;20030;-83
2021/05/23 08:23:53;;;;;;;4.97;3.13;;;;;;;;;;5014811;28;20032;-77
2021/05/23 08:26:19;;;;;;;4.82;3.22;;;;;;;;;;5014880;28;20036;-81
2021/05/23 08:28:45;;;;;;;7.15;3.30;;;;;;;;;;5015554;28;20060;-82
2021/05/23 08:31:11;;;;;;;4.20;2.85;;;;;;;;;;5017119;28;20030;-80
2021/05/23 08:33:37;;;;;;;5.30;3.08;;;;;;;;;;5015735;28;20030;-79
2021/05/23 08:36:04;;;;;;;4.90;3.35;;;;;;;;;;5016128;28;20435;-81
2021/05/23 08:38:30;;;;;;;11.50;2.70;;;;;;;;;;5017313;28;20033;-78
2021/05/23 08:40:56;;;;;;;9.85;3.00;;;;;;;;;;5014282;28;20172;-79
2021/05/23 08:43:25;;;;;;;12.60;3.53;;;;;;;;;;5010810;28;20523;-79
2021/05/23 08:45:51;;;;;;;10.70;2.75;;;;;;;;;;5014209;28;20029;-77
2021/05/23 08:48:18;;;;;;;6.18;2.88;;;;;;;;;;5013067;28;20468;-75
2021/05/23 08:50:44;;;;;;;8.00;3.00;;;;;;;;;;5014189;28;20048;-76
2021/05/23 08:53:10;;;;;;;3.95;2.63;;;;;;;;;;5014162;28;20042;-78
2021/05/23 08:55:39;;;;;;;3.10;2.47;;;;;;;;;;5017794;28;20026;-77
2021/05/23 08:58:05;;;;;;;5.85;2.78;;;;;;;;;;5016551;28;20503;-78
2021/05/23 09:00:31;;;;;;;4.75;3.50;;;;;;;;;;5013529;28;20026;-77
2021/05/23 09:03:00;;;;;;;4.10;2.47;;;;;;;;;;5014238;28;20021;-77
2021/05/23 09:05:27;;;;;;;3.92;2.60;;;;;;;;;;5015182;28;20565;-76
2021/05/23 09:07:53;;;;;;;4.53;3.33;;;;;;;;;;5015276;28;20021;-78
2021/05/23 09:10:27;;;;;;;8.10;2.97;;;;;;;;;;5015003;28;20022;-79
2021/05/23 09:12:53;;;;;;;2.33;1.80;;;;;;;;;;5014568;28;20053;-74
2021/05/23 09:15:19;;;;;;;2.63;2.33;;;;;;;;;;5014565;28;20022;-79
2021/05/23 09:17:45;;;;;;;3.67;2.58;;;;;;;;;;5012967;28;20026;-78
2021/05/23 09:20:18;;;;;;;3.85;2.13;;;;;;;;;;5010379;28;20025;-79
2021/05/23 09:22:50;;;;;;;7.80;2.90;;;;;;;;;;5014066;28;20037;-80
2021/05/23 09:25:26;;;;;;;4.40;2.05;;;;;;;;;;5010968;28;20037;-79
2021/05/23 09:27:52;;;;;;;4.70;2.00;;;;;;;;;;5011780;28;20554;-74
2021/05/23 09:30:21;;;;;;;4.30;2.40;;;;;;;;;;5008175;28;20431;-74
2021/05/23 09:32:49;;;;;;;6.97;3.42;;;;;;;;;;5012308;28;20044;-73
2021/05/23 09:35:15;;;;;;;74.20;14.23;;;;;;;;;;5010898;28;20088;-75
2021/05/23 09:37:42;;;;;;;42.67;11.18;;;;;;;;;;5012597;28;20439;-72
2021/05/23 09:40:16;;;;;;;41.20;12.88;;;;;;;;;;5011557;28;20080;-76
2021/05/23 09:42:44;;;;;;;34.88;11.05;;;;;;;;;;5012056;28;20523;-75
2021/05/23 09:45:10;;;;;;;62.50;15.05;;;;;;;;;;5012337;28;20026;-77
2021/05/23 09:47:37;;;;;;;53.95;13.88;;;;;;;;;;5012510;28;20360;-74
2021/05/23 09:50:03;;;;;;;34.22;12.88;;;;;;;;;;5012190;28;20129;-75
2021/05/23 09:52:31;;;;;;;54.97;13.10;;;;;;;;;;5011894;28;20030;-74
2021/05/23 09:54:59;;;;;;;54.75;15.35;;;;;;;;;;5011173;28;20022;-73
2021/05/23 09:57:25;;;;;;;58.42;13.38;;;;;;;;;;5012017;28;20029;-74
2021/05/23 09:59:59;;;;;;;37.03;11.90;;;;;;;;;;5011730;28;20026;-74
2021/05/23 10:02:25;;;;;;;49.33;13.30;;;;;;;;;;5011678;28;20030;-74
2021/05/23 10:04:51;;;;;;;39.35;11.77;;;;;;;;;;5011802;28;20049;-74
2021/05/23 10:07:17;;;;;;;29.80;11.40;;;;;;;;;;5011547;28;20468;-74
2021/05/23 10:09:43;;;;;;;31.42;11.77;;;;;;;;;;5011956;28;20380;-74
2021/05/23 10:12:11;;;;;;;30.73;12.10;;;;;;;;;;5011049;28;20510;-73
2021/05/23 10:14:37;;;;;;;31.10;12.38;;;;;;;;;;5011635;28;20384;-74
2021/05/23 10:17:06;;;;;;;37.35;11.57;;;;;;;;;;5011968;28;20022;-74
2021/05/23 10:19:32;;;;;;;37.00;11.85;;;;;;;;;;5011942;28;20092;-74
2021/05/23 10:21:59;;;;;;;20.63;9.98;;;;;;;;;;5011754;28;20061;-75
2021/05/23 10:24:30;;;;;;;26.85;11.23;;;;;;;;;;5012167;28;20033;-75
2021/05/23 10:26:57;;;;;;;25.70;9.90;;;;;;;;;;5011957;28;20034;-75
2021/05/23 10:29:23;;;;;;;26.27;10.90;;;;;;;;;;5012548;28;20029;-78
2021/05/23 10:31:49;;;;;;;36.38;12.00;;;;;;;;;;5011843;28;20508;-75
2021/05/23 10:34:15;;;;;;;31.55;10.52;;;;;;;;;;5011312;28;20033;-76
2021/05/23 10:36:42;;;;;;;24.63;10.55;;;;;;;;;;5011594;28;20029;-73
2021/05/23 10:39:09;;;;;;;20.33;9.98;;;;;;;;;;5011639;28;20026;-74
2021/05/23 10:41:35;;;;;;;21.20;8.40;;;;;;;;;;5011865;28;20023;-74
2021/05/23 10:44:02;;;;;;;21.85;9.32;;;;;;;;;;5011313;28;20453;-74
2021/05/23 10:46:30;;;;;;;28.05;11.07;;;;;;;;;;5011988;28;20049;-74
2021/05/23 10:48:57;;;;;;;27.38;11.05;;;;;;;;;;5011038;28;20026;-75
2021/05/23 10:51:23;;;;;;;20.98;10.07;;;;;;;;;;5011504;28;20022;-75
2021/05/23 10:53:49;;;;;;;22.15;9.80;;;;;;;;;;5011393;28;20034;-75
2021/05/23 10:56:19;;;;;;;16.70;8.73;;;;;;;;;;5011256;28;20060;-76
2021/05/23 10:58:54;;;;;;;19.98;7.57;;;;;;;;;;5011669;28;20061;-79
2021/05/23 11:01:25;;;;;;;9.70;6.05;;;;;;;;;;5013307;28;20033;-75
2021/05/23 11:03:51;;;;;;;9.18;4.95;;;;;;;;;;5012570;28;20104;-75
2021/05/23 11:06:21;;;;;;;10.63;4.43;;;;;;;;;;5013515;28;20380;-73
2021/05/23 11:08:48;;;;;;;8.13;4.97;;;;;;;;;;5012975;28;20030;-73
2021/05/23 11:11:19;;;;;;;14.55;4.03;;;;;;;;;;5013206;28;20104;-74
2021/05/23 11:13:45;;;;;;;6.35;3.40;;;;;;;;;;5010617;28;20041;-72
2021/05/23 11:16:14;;;;;;;4.93;2.75;;;;;;;;;;5015695;28;20033;-78
2021/05/23 11:18:41;;;;;;;9.02;3.80;;;;;;;;;;5016682;28;20419;-76
2021/05/23 11:21:07;;;;;;;3.97;2.97;;;;;;;;;;5018833;28;20109;-75
2021/05/23 11:23:34;;;;;;;5.35;3.55;;;;;;;;;;5017318;28;20050;-76
2021/05/23 11:26:07;;;;;;;9.00;3.80;;;;;;;;;;5018636;28;20079;-75
2021/05/23 11:28:33;;;;;;;5.70;3.00;;;;;;;;;;5017858;28;20041;-77
2021/05/23 11:30:59;;;;;;;4.50;2.92;;;;;;;;;;5019119;28;20034;-77
2021/05/23 11:33:25;;;;;;;3.58;2.30;;;;;;;;;;5017713;28;20061;-80
2021/05/23 11:35:53;;;;;;;3.85;2.10;;;;;;;;;;5017537;28;20168;-76
2021/05/23 11:38:20;;;;;;;6.82;2.53;;;;;;;;;;5018691;28;20476;-77
2021/05/23 11:40:46;;;;;;;3.88;2.58;;;;;;;;;;5015355;28;20034;-74
2021/05/23 11:43:13;;;;;;;5.43;3.45;;;;;;;;;;5015476;28;20475;-76
2021/05/23 11:45:43;;;;;;;4.25;3.03;;;;;;;;;;5017097;28;20056;-74
2021/05/23 11:48:09;;;;;;;8.65;2.30;;;;;;;;;;5016463;28;20084;-76
2021/05/23 11:50:35;;;;;;;4.78;2.45;;;;;;;;;;5016354;28;20552;-76
2021/05/23 11:53:01;;;;;;;7.50;2.88;;;;;;;;;;5016513;28;20052;-75
2021/05/23 11:55:28;;;;;;;2.45;2.00;;;;;;;;;;5016618;28;20026;-76
2021/05/23 11:58:11;;;;;;;4.55;2.63;;;;;;;;;;5016621;28;20037;-76
2021/05/23 12:00:37;;;;;;;3.78;2.65;;;;;;;;;;5017061;28;20034;-75
2021/05/23 12:03:03;;;;;;;4.60;2.70;;;;;;;;;;5016314;28;20029;-74
2021/05/23 12:05:45;;;;;;;8.68;2.70;;;;;;;;;;5016697;28;20054;-77
2021/05/23 12:08:26;;;;;;;4.45;3.03;;;;;;;;;;5015954;28;20034;-77
2021/05/23 12:11:07;;;;;;;2.25;2.05;;;;;;;;;;5016599;28;20026;-77
2021/05/23 12:13:38;;;;;;;3.28;2.45;;;;;;;;;;5016255;28;20124;-77
2021/05/23 12:16:05;;;;;;;3.85;2.95;;;;;;;;;;5015733;28;20022;-77
2021/05/23 12:18:35;;;;;;;8.90;2.55;;;;;;;;;;5016254;28;20040;-79
2021/05/23 12:21:01;;;;;;;4.72;2.85;;;;;;;;;;5016205;28;20037;-76
2021/05/23 12:23:27;;;;;;;8.25;2.60;;;;;;;;;;5016197;28;20025;-77
2021/05/23 12:25:53;;;;;;;12.32;2.95;;;;;;;;;;5014475;28;20103;-80
2021/05/23 12:28:19;;;;;;;3.35;2.38;;;;;;;;;;5013161;28;20033;-77
2021/05/23 12:30:45;;;;;;;8.23;1.98;;;;;;;;;;5014527;28;20099;-79
2021/05/23 12:33:11;;;;;;;24.83;2.22;;;;;;;;;;5013958;28;20048;-80
2021/05/23 12:35:39;;;;;;;3.35;2.28;;;;;;;;;;5011701;28;20483;-79
2021/05/23 12:38:16;;;;;;;3.58;2.85;;;;;;;;;;5014171;28;20025;-82
2021/05/23 12:40:47;;;;;;;3.20;2.50;;;;;;;;;;5012436;28;20033;-80
2021/05/23 12:43:13;;;;;;;;;;;;;;;;;;5014109;28;20368;-84
2021/05/23 12:45:40;;;;;;;3.53;2.47;;;;;;;;;;5014168;28;19916;-83
2021/05/23 12:48:06;;;;;;;2.63;2.38;;;;;;;;;;5013819;28;20491;-83
2021/05/23 12:50:35;;;;;;;3.00;2.17;;;;;;;;;;5014023;28;20034;-81
2021/05/23 12:53:01;;;;;;;2.60;1.98;;;;;;;;;;5013915;28;20041;-85
2021/05/23 12:55:29;;;;;;;3.30;2.20;;;;;;;;;;5014320;28;20018;-83
2021/05/23 12:57:55;;;;;;;6.47;3.05;;;;;;;;;;5014166;28;20032;-84
2021/05/23 13:00:21;;;;;;;4.78;2.45;;;;;;;;;;5013854;28;20357;-82
2021/05/23 13:02:48;;;;;;;6.35;2.25;;;;;;;;;;5013582;28;20034;-82
2021/05/23 13:05:15;;;;;;;3.47;1.95;;;;;;;;;;5013020;28;20179;-79
2021/05/23 13:07:41;;;;;;;3.22;2.60;;;;;;;;;;5013286;28;20080;-80
2021/05/23 13:10:11;;;;;;;3.47;2.10;;;;;;;;;;5012987;28;20034;-82
2021/05/23 13:12:37;;;;;;;3.63;2.60;;;;;;;;;;5010819;28;20109;-81
2021/05/23 13:15:04;;;;;;;3.42;2.70;;;;;;;;;;5013922;28;20037;-82
2021/05/23 13:17:31;;;;;;;2.65;2.35;;;;;;;;;;5013730;28;20088;-84
2021/05/23 13:19:57;;;;;;;4.10;2.60;;;;;;;;;;5012975;28;20040;-79
2021/05/23 13:22:23;;;;;;;3.38;2.47;;;;;;;;;;5013145;28;20026;-75
2021/05/23 13:24:49;;;;;;;3.50;2.28;;;;;;;;;;5014608;28;20372;-79
2021/05/23 13:27:18;;;;;;;7.18;2.83;;;;;;;;;;5013130;28;20026;-77
2021/05/23 13:29:44;;;;;;;2.60;2.28;;;;;;;;;;5013784;28;20017;-76
2021/05/23 13:32:10;;;;;;;2.15;1.95;;;;;;;;;;5013804;28;20038;-75
2021/05/23 13:34:36;;;;;;;2.95;2.10;;;;;;;;;;5013222;28;20057;-83
2021/05/23 13:37:03;;;;;;;2.88;2.55;;;;;;;;;;5012549;28;20029;-82
2021/05/23 13:39:29;;;;;;;3.83;2.35;;;;;;;;;;5011765;28;20018;-84
2021/05/23 13:41:55;;;;;;;2.60;2.30;;;;;;;;;;5012205;28;20448;-82
2021/05/23 13:44:21;;;;;;;3.03;2.28;;;;;;;;;;5009551;28;20025;-82
2021/05/23 13:46:47;;;;;;;3.42;2.42;;;;;;;;;;5011624;28;20030;-79
2021/05/23 13:49:14;;;;;;;2.85;2.50;;;;;;;;;;5012963;28;20353;-79
2021/05/23 13:51:40;;;;;;;12.48;2.60;;;;;;;;;;5013259;28;20101;-81
2021/05/23 13:54:06;;;;;;;3.30;2.65;;;;;;;;;;5013416;28;20022;-83
2021/05/23 13:56:32;;;;;;;4.03;2.58;;;;;;;;;;5013661;28;20484;-77
2021/05/23 13:58:58;;;;;;;3.35;2.70;;;;;;;;;;5013157;28;20499;-79
2021/05/23 14:01:24;;;;;;;4.55;2.65;;;;;;;;;;5013384;28;20053;-85
2021/05/23 14:03:50;;;;;;;7.93;3.38;;;;;;;;;;4947802;28;1889557;-80
2021/05/23 14:06:17;;;;;;;5.15;4.40;;;;;;;;;;5011963;28;20042;-78
2021/05/23 14:08:43;;;;;;;5.88;3.60;;;;;;;;;;5016628;28;20095;-80
2021/05/23 14:11:09;;;;;;;3.63;3.22;;;;;;;;;;5016417;28;20030;-76
2021/05/23 14:13:35;;;;;;;4.57;3.72;;;;;;;;;;5015507;28;20065;-78
2021/05/23 14:16:02;;;;;;;8.27;4.20;;;;;;;;;;5016862;28;20465;-77
2021/05/23 14:18:29;;;;;;;3.22;2.92;;;;;;;;;;5016952;28;20033;-79
2021/05/23 14:20:55;;;;;;;3.78;3.33;;;;;;;;;;5016815;28;20048;-80
2021/05/23 14:23:21;;;;;;;8.45;3.70;;;;;;;;;;5016306;28;20423;-78
2021/05/23 14:25:47;;;;;;;6.75;4.82;;;;;;;;;;5013651;28;20472;-78
2021/05/23 14:28:14;;;;;;;9.40;3.80;;;;;;;;;;5016052;28;20375;-78
2021/05/23 14:30:40;;;;;;;7.50;3.40;;;;;;;;;;5013828;28;20018;-77
2021/05/23 14:33:06;;;;;;;3.72;3.17;;;;;;;;;;5015577;28;20046;-79
2021/05/23 14:35:32;;;;;;;6.57;3.60;;;;;;;;;;5016195;28;20077;-83
2021/05/23 14:37:58;;;;;;;10.30;3.65;;;;;;;;;;5017137;28;20076;-80